createdAt,value
2023-04-30T00:02:23.635Z,93.32
2023-04-30T00:07:25.676Z,93.09
2023-04-30T00:12:27.515Z,93.92
2023-04-30T00:17:29.289Z,94.25
2023-04-30T00:22:31.012Z,92.20
2023-04-30T00:27:32.717Z,92.82
2023-04-30T00:32:34.431Z,91.90
2023-04-30T00:37:36.195Z,92.09
2023-04-30T00:42:38.014Z,93.00
2023-04-30T00:47:39.978Z,93.02
2023-04-30T00:52:45.387Z,93.95
2023-04-30T00:57:47.396Z,95.44
2023-04-30T01:02:49.810Z,97.07
2023-04-30T01:07:52.632Z,98.30
2023-04-30T01:13:20.479Z,97.11
2023-04-30T01:18:28.380Z,96.36
2023-04-30T01:24:04.512Z,97.79
2023-04-30T01:29:07.066Z,100.00
2023-04-30T01:34:08.784Z,99.98
2023-04-30T01:39:16.752Z,100.00
2023-04-30T01:44:46.482Z,100.00
2023-04-30T01:50:09.449Z,100.00
2023-04-30T01:55:20.660Z,100.00
2023-04-30T02:00:22.411Z,98.85
2023-04-30T02:05:25.082Z,98.15
2023-04-30T02:10:29.486Z,97.61
2023-04-30T02:15:31.289Z,99.41
2023-04-30T02:20:33.243Z,100.00
2023-04-30T02:25:38.009Z,100.00
2023-04-30T02:30:39.857Z,99.80
2023-04-30T02:35:41.759Z,100.00
2023-04-30T02:40:43.469Z,100.00
2023-04-30T02:45:45.175Z,100.00
2023-04-30T02:50:46.975Z,100.00
2023-04-30T02:55:48.725Z,100.00
2023-04-30T03:00:50.367Z,100.00
2023-04-30T03:05:52.101Z,100.00
2023-04-30T03:10:53.916Z,100.00
2023-04-30T03:16:04.689Z,100.00
2023-04-30T03:21:06.632Z,100.00
2023-04-30T03:26:08.556Z,100.00
2023-04-30T03:31:10.315Z,100.00
2023-04-30T03:36:13.085Z,100.00
2023-04-30T03:41:14.837Z,100.00
2023-04-30T03:46:16.456Z,100.00
2023-04-30T03:51:20.934Z,100.00
2023-04-30T03:56:22.656Z,100.00
2023-04-30T04:01:24.786Z,100.00
2023-04-30T04:06:26.967Z,100.00
2023-04-30T04:11:29.072Z,100.00
2023-04-30T04:16:32.190Z,100.00
2023-04-30T04:21:34.006Z,100.00
2023-04-30T04:26:40.509Z,100.00
2023-04-30T04:31:43.959Z,100.00
2023-04-30T04:36:46.022Z,100.00
2023-04-30T04:41:47.730Z,100.00
2023-04-30T04:46:49.978Z,100.00
2023-04-30T04:51:51.760Z,99.75
2023-04-30T04:56:53.476Z,99.53
2023-04-30T05:01:56.437Z,99.72
2023-04-30T05:06:58.290Z,99.77
2023-04-30T05:12:00.199Z,98.18
2023-04-30T05:17:01.870Z,97.60
2023-04-30T05:22:04.240Z,97.35
2023-04-30T05:27:06.322Z,97.36
2023-04-30T05:32:08.381Z,96.04
2023-04-30T05:37:10.480Z,96.94
2023-04-30T05:42:12.296Z,94.66
2023-04-30T05:47:14.038Z,92.81
2023-04-30T05:52:17.514Z,94.31
2023-04-30T05:57:19.295Z,90.70
2023-04-30T06:02:21.121Z,91.60
2023-04-30T06:07:22.896Z,90.43
2023-04-30T06:12:24.899Z,87.21
2023-04-30T06:17:26.600Z,84.29
2023-04-30T06:22:30.219Z,86.39
2023-04-30T06:27:32.541Z,86.18
2023-04-30T06:32:35.018Z,87.55
2023-04-30T06:37:38.115Z,86.01
2023-04-30T06:42:40.639Z,83.15
2023-04-30T06:47:43.019Z,82.89
2023-04-30T06:52:45.111Z,84.04
2023-04-30T06:57:47.114Z,83.66
2023-04-30T07:02:52.338Z,85.63
2023-04-30T07:07:54.852Z,87.46
2023-04-30T07:12:56.686Z,85.31
2023-04-30T07:17:58.417Z,85.91
2023-04-30T07:23:00.188Z,85.53
2023-04-30T07:28:02.249Z,81.70
2023-04-30T07:33:03.988Z,85.06
2023-04-30T07:38:05.912Z,83.42
2023-04-30T07:43:07.750Z,78.74
2023-04-30T07:48:09.429Z,80.59
2023-04-30T07:53:11.220Z,78.59
2023-04-30T07:58:12.855Z,75.65
2023-04-30T08:03:14.601Z,79.28
2023-04-30T08:08:16.352Z,77.72
2023-04-30T08:13:18.050Z,76.77
2023-04-30T08:18:19.679Z,75.58
2023-04-30T08:23:21.361Z,75.36
2023-04-30T08:28:22.983Z,73.59
2023-04-30T08:33:24.751Z,72.70
2023-04-30T08:38:28.278Z,70.56
2023-04-30T08:43:30.901Z,69.51
2023-04-30T08:48:33.395Z,71.01
2023-04-30T08:53:36.672Z,70.31
2023-04-30T08:58:38.471Z,71.01
2023-04-30T09:03:40.709Z,71.92
2023-04-30T09:08:44.433Z,65.98
2023-04-30T09:13:46.079Z,64.31
2023-04-30T09:18:48.399Z,66.44
2023-04-30T09:24:00.015Z,65.67
2023-04-30T09:29:07.848Z,65.83
2023-04-30T09:34:11.474Z,66.08
2023-04-30T09:39:17.552Z,61.00
2023-04-30T09:44:30.285Z,57.57
2023-04-30T09:50:03.811Z,54.96
2023-04-30T09:55:09.714Z,53.88
2023-04-30T10:00:12.005Z,57.63
2023-04-30T10:05:13.664Z,57.82
2023-04-30T10:10:20.268Z,53.50
2023-04-30T10:15:31.055Z,50.39
2023-04-30T10:20:37.015Z,53.11
2023-04-30T10:25:41.458Z,54.91
2023-04-30T10:30:46.429Z,49.14
2023-04-30T10:35:56.956Z,51.46
2023-04-30T10:41:02.661Z,47.46
2023-04-30T10:46:04.849Z,48.20
2023-04-30T10:51:08.753Z,50.14
2023-04-30T10:56:10.438Z,51.80
2023-04-30T11:01:14.869Z,51.52
2023-04-30T11:06:20.482Z,49.13
2023-04-30T11:11:23.795Z,43.61
2023-04-30T11:16:34.889Z,47.89
2023-04-30T11:22:05.335Z,46.42
2023-04-30T11:27:07.028Z,45.96
2023-04-30T11:32:09.374Z,46.50
2023-04-30T11:37:15.973Z,47.89
2023-04-30T11:42:21.220Z,45.82
2023-04-30T11:47:23.016Z,48.23
2023-04-30T11:52:25.857Z,48.26
2023-04-30T11:57:35.225Z,48.10
2023-04-30T12:02:37.074Z,49.94
2023-04-30T12:07:39.627Z,44.83
2023-04-30T12:12:43.345Z,46.64
2023-04-30T12:17:46.482Z,44.63
2023-04-30T12:22:48.867Z,42.72
2023-04-30T12:27:53.176Z,45.73
2023-04-30T12:32:59.615Z,41.07
2023-04-30T12:38:06.104Z,41.67
2023-04-30T12:43:09.104Z,40.19
2023-04-30T12:48:11.440Z,37.31
2023-04-30T12:53:13.297Z,37.70
2023-04-30T12:58:16.547Z,40.32
2023-04-30T13:03:21.105Z,38.36
2023-04-30T13:08:23.638Z,37.97
2023-04-30T13:13:26.042Z,36.41
2023-04-30T13:18:27.943Z,35.52
2023-04-30T13:23:31.856Z,37.59
2023-04-30T13:28:35.380Z,37.92
2023-04-30T13:33:37.233Z,36.87
2023-04-30T13:38:39.430Z,38.78
2023-04-30T13:43:42.677Z,39.14
2023-04-30T13:48:48.107Z,38.79
2023-04-30T13:53:49.703Z,39.97
2023-04-30T13:58:51.401Z,39.26
2023-04-30T14:03:53.125Z,40.45
2023-04-30T14:08:54.876Z,38.47
2023-04-30T14:13:56.510Z,40.73
2023-04-30T14:18:58.120Z,38.38
2023-04-30T14:23:59.716Z,37.97
2023-04-30T14:29:01.395Z,37.39
2023-04-30T14:34:03.133Z,37.34
2023-04-30T14:39:05.077Z,38.26
2023-04-30T14:44:06.778Z,37.86
2023-04-30T14:49:08.365Z,38.71
2023-04-30T14:54:10.129Z,37.37
2023-04-30T14:59:15.161Z,37.13
2023-04-30T15:04:48.431Z,36.99
2023-04-30T15:09:56.979Z,35.21
2023-04-30T15:15:04.898Z,35.49
2023-04-30T15:20:10.663Z,35.86
2023-04-30T15:25:15.417Z,36.76
2023-04-30T15:30:17.447Z,35.08
2023-04-30T15:35:22.319Z,34.02
2023-04-30T15:40:25.425Z,33.20
2023-04-30T15:45:29.797Z,32.96
2023-04-30T15:50:34.362Z,33.78
2023-04-30T15:55:37.523Z,34.17
2023-04-30T16:00:39.701Z,35.22
2023-04-30T16:05:41.719Z,36.02
2023-04-30T16:10:43.418Z,35.27
2023-04-30T16:15:45.347Z,37.05
2023-04-30T16:20:49.186Z,36.66
2023-04-30T16:25:50.895Z,34.77
2023-04-30T16:30:52.838Z,36.59
2023-04-30T16:35:55.177Z,37.26
2023-04-30T16:40:56.861Z,39.34
2023-04-30T16:45:58.590Z,38.96
2023-04-30T16:51:00.355Z,40.24
2023-04-30T16:56:02.086Z,39.57
2023-04-30T17:01:03.772Z,40.16
2023-04-30T17:06:06.485Z,41.04
2023-04-30T17:11:08.180Z,40.61
2023-04-30T17:16:09.881Z,40.64
2023-04-30T17:21:11.548Z,41.66
2023-04-30T17:26:13.212Z,41.77
2023-04-30T17:31:14.999Z,42.55
2023-04-30T17:36:17.985Z,42.86
2023-04-30T17:41:20.052Z,43.67
2023-04-30T17:46:22.446Z,43.38
2023-04-30T17:51:24.310Z,43.89
2023-04-30T17:56:28.675Z,44.07
2023-04-30T18:01:30.686Z,44.61
2023-04-30T18:06:32.449Z,46.15
2023-04-30T18:11:34.129Z,46.39
2023-04-30T18:16:36.023Z,48.14
2023-04-30T18:21:38.075Z,48.00
2023-04-30T18:26:39.746Z,49.19
2023-04-30T18:31:41.455Z,50.19
2023-04-30T18:36:43.188Z,51.41
2023-04-30T18:41:45.057Z,51.64
2023-04-30T18:46:46.681Z,52.91
2023-04-30T18:51:48.322Z,53.46
2023-04-30T18:56:50.047Z,53.08
2023-04-30T19:01:51.690Z,53.71
2023-04-30T19:06:55.621Z,52.79
2023-04-30T19:11:57.920Z,54.12
2023-04-30T19:17:00.487Z,56.39
2023-04-30T19:22:02.252Z,57.21
2023-04-30T19:27:04.344Z,56.00
2023-04-30T19:32:06.600Z,56.43
2023-04-30T19:37:08.449Z,58.32
2023-04-30T19:42:10.178Z,60.30
2023-04-30T19:47:11.815Z,61.91
2023-04-30T19:52:14.401Z,63.98
2023-04-30T19:57:17.480Z,64.88
2023-04-30T20:02:19.180Z,65.65
2023-04-30T20:07:20.891Z,67.17
2023-04-30T20:12:22.667Z,68.39
2023-04-30T20:17:24.325Z,69.35
2023-04-30T20:22:27.527Z,67.63
2023-04-30T20:27:29.523Z,67.34
2023-04-30T20:32:31.667Z,68.49
2023-04-30T20:37:34.352Z,69.62
2023-04-30T20:42:36.361Z,69.99
2023-04-30T20:47:39.928Z,70.45
2023-04-30T20:52:41.748Z,71.12
2023-04-30T20:57:43.456Z,71.46
2023-04-30T21:02:45.466Z,70.99
2023-04-30T21:07:47.193Z,70.74
2023-04-30T21:12:48.908Z,71.88
2023-04-30T21:17:50.729Z,71.93
2023-04-30T21:22:55.030Z,72.95
2023-04-30T21:27:57.008Z,75.64
2023-04-30T21:32:59.264Z,76.01
2023-04-30T21:38:01.338Z,77.77
2023-04-30T21:43:03.626Z,76.68
2023-04-30T21:48:05.932Z,74.50
2023-04-30T21:53:08.061Z,73.46
2023-04-30T21:58:09.690Z,76.72
2023-04-30T22:03:11.426Z,77.21
2023-04-30T22:08:13.120Z,76.92
2023-04-30T22:13:15.128Z,79.49
2023-04-30T22:18:17.208Z,79.54
2023-04-30T22:23:21.510Z,80.22
2023-04-30T22:28:23.499Z,81.92
2023-04-30T22:33:25.369Z,81.39
2023-04-30T22:38:27.045Z,82.15
2023-04-30T22:43:30.373Z,82.98
2023-04-30T22:48:32.272Z,83.05
2023-04-30T22:53:34.526Z,85.24
2023-04-30T22:58:36.796Z,83.03
2023-04-30T23:03:38.702Z,82.49
2023-04-30T23:08:40.560Z,84.21
2023-04-30T23:13:42.283Z,85.90
2023-04-30T23:18:43.965Z,86.13
2023-04-30T23:23:45.717Z,86.25
2023-04-30T23:28:47.339Z,85.42
2023-04-30T23:33:49.135Z,88.71
2023-04-30T23:38:51.269Z,89.19
2023-04-30T23:43:53.336Z,87.00
2023-04-30T23:48:55.598Z,89.03
2023-04-30T23:53:57.195Z,87.38
2023-04-30T23:58:58.867Z,87.20
